Home > Products > Valid Products > TAF

000
FTUS46 KSGX 260500 CCA
TAFSAN
TAF COR
KSAN 260538Z 2606/2712 VRB03KT P6SM BKN017
     FM261800 29009KT P6SM SCT022
     FM270130 VRB04KT P6SM FEW017
     FM270900 VRB03KT P6SM BKN017=



000
FTUS46 KSGX 260500 CCA
TAFSAN
TAF COR
KSAN 260538Z 2606/2712 VRB03KT P6SM BKN017
     FM261800 29009KT P6SM SCT022
     FM270130 VRB04KT P6SM FEW017
     FM270900 VRB03KT P6SM BKN017=



000
FTUS46 KSGX 260500
TAFCRQ
TAF
KCRQ 260520Z 2606/2706 VRB03KT P6SM SCT015
     FM260700 VRB03KT P6SM BKN015
     FM261800 VRB05KT P6SM SCT020
     FM262000 26008KT P6SM SKC
     FM270100 VRB04KT P6SM FEW015=



000
FTUS46 KSGX 260500
TAFTRM
TAF
KTRM 260520Z 2606/2706 33010KT P6SM SKC=



000
FTUS46 KSGX 260500
TAFONT
TAF
KONT 260520Z 2606/2712 VRB04KT P6SM FEW011
     FM261200 VRB03KT 5SM HZ BKN011
     FM261600 VRB05KT P6SM SCT015
     FM262030 26010KT P6SM SKC
     FM270330 VRB04KT P6SM SKC=



000
FTUS46 KSGX 260500
TAFSNA
TAF
KSNA 260520Z 2606/2706 VRB05KT P6SM SCT015
     FM261000 VRB03KT P6SM BKN017
     FM261800 VRB05KT P6SM SCT021
     FM262100 23008KT P6SM SKC
     FM270100 VRB04KT P6SM FEW017=



000
FTUS46 KSGX 260500
TAFONT
TAF
KONT 260520Z 2606/2712 VRB04KT P6SM FEW011
     FM261200 VRB03KT 5SM HZ BKN011
     FM261600 VRB05KT P6SM SCT015
     FM262030 26010KT P6SM SKC
     FM270330 VRB04KT P6SM SKC=



000
FTUS46 KSGX 260500
TAFSAN
TAF
KSAN 260520Z 2606/2712 VRB03KT P6SM SCT015
     FM260700 VRB03KT P6SM BKN017
     FM261800 29009KT P6SM SCT022
     FM270130 VRB04KT P6SM FEW017
     FM270900 VRB03KT P6SM BKN017=



000
FTUS46 KSGX 260500
TAFTRM
TAF
KTRM 260520Z 2606/2706 33010KT P6SM SKC=



000
FTUS46 KSGX 260500
TAFPSP
TAF
KPSP 260520Z 2606/2706 VRB06KT P6SM SKC
     FM262300 32012G20KT P6SM SKC=



000
FTUS46 KSGX 260500
TAFCRQ
TAF
KCRQ 260520Z 2606/2706 VRB03KT P6SM SCT015
     FM260700 VRB03KT P6SM BKN015
     FM261800 VRB05KT P6SM SCT020
     FM262000 26008KT P6SM SKC
     FM270100 VRB04KT P6SM FEW015=



000
FTUS46 KSGX 260500
TAFSAN
TAF
KSAN 260520Z 2606/2712 VRB03KT P6SM SCT015
     FM260700 VRB03KT P6SM BKN017
     FM261800 29009KT P6SM SCT022
     FM270130 VRB04KT P6SM FEW017
     FM270900 VRB03KT P6SM BKN017=



000
FTUS46 KSGX 260500
TAFSNA
TAF
KSNA 260520Z 2606/2706 VRB05KT P6SM SCT015
     FM261000 VRB03KT P6SM BKN017
     FM261800 VRB05KT P6SM SCT021
     FM262100 23008KT P6SM SKC
     FM270100 VRB04KT P6SM FEW017=



000
FTUS46 KSGX 260500
TAFPSP
TAF
KPSP 260520Z 2606/2706 VRB06KT P6SM SKC
     FM262300 32012G20KT P6SM SKC=



000
FTUS46 KSGX 260200 AAA
TAFSAN
TAF AMD
KSAN 260234Z 2603/2706 VRB04KT P6SM SCT015
     FM260800 VRB03KT P6SM BKN017
     FM261800 29006KT P6SM SCT022
     FM262000 29010KT P6SM FEW022
     FM270100 VRB05KT P6SM FEW022=



000
FTUS46 KSGX 252300
TAFCRQ
TAF
KCRQ 252337Z 2600/2624 27006KT P6SM FEW011
     FM260200 VRB04KT P6SM SCT011
     FM260600 VRB03KT P6SM BKN014
     FM261800 VRB05KT P6SM SCT020
     FM262000 26008KT P6SM FEW020=



000
FTUS46 KSGX 252300
TAFTRM
TAF
KTRM 252337Z 2600/2624 VRB06KT P6SM SKC
     FM260300 33010KT P6SM SKC
     FM261100 VRB06KT P6SM SKC=



000
FTUS46 KSGX 252300
TAFSAN
TAF
KSAN 252337Z 2600/2706 29009KT P6SM FEW015
     FM260200 VRB04KT P6SM SCT015
     FM260500 VRB03KT P6SM BKN017
     FM261800 29006KT P6SM SCT022
     FM262000 29010KT P6SM FEW022
     FM270100 VRB05KT P6SM FEW022=



000
FTUS46 KSGX 252300
TAFONT
TAF
KONT 252337Z 2600/2706 25012KT P6SM SKC
     FM260400 VRB04KT P6SM FEW010
     FM261000 VRB03KT 5SM BR HZ BKN010
     FM261600 VRB05KT P6SM SCT015
     FM262000 26010KT P6SM SKC
     FM270330 VRB05KT P6SM SKC=



000
FTUS46 KSGX 252300
TAFPSP
TAF
KPSP 252337Z 2600/2624 32012G20KT P6SM SKC
     FM260600 VRB06KT P6SM SKC
     FM262300 32010G18KT P6SM SKC=



000
FTUS46 KSGX 252300
TAFSNA
TAF
KSNA 252337Z 2600/2624 24008KT P6SM SKC
     FM260200 VRB05KT P6SM SCT015
     FM260700 VRB03KT P6SM BKN017
     FM261800 VRB05KT P6SM SCT021
     FM262100 23008KT P6SM SKC=



000
FTUS46 KSGX 252200 AAB
TAFSAN
TAF AMD
KSAN 252208Z 2522/2624 29010KT P6SM SCT015 SCT100
      TEMPO 2522/2524 BKN015
     FM260200 VRB04KT P6SM SCT015
     FM260500 VRB03KT P6SM BKN015
     FM260900 VRB04KT P6SM BKN018
     FM261800 28010KT P6SM SCT025=



000
FTUS46 KSGX 252000 AAA
TAFSAN
TAF AMD
KSAN 252041Z 2521/2624 29010KT P6SM SCT015 SCT070
     FM260200 VRB04KT P6SM SCT015
     FM260500 VRB03KT P6SM BKN015
     FM260900 VRB04KT P6SM BKN018
     FM261800 28010KT P6SM SCT025=



000
FTUS46 KSGX 251700
TAFONT
TAF
KONT 251721Z 2518/2624 VRB05KT P6SM SCT100
     FM252000 25012KT P6SM SCT100
     FM260400 VRB04KT P6SM FEW100
     FM260900 VRB04KT 5SM BR HZ BKN010
     FM261600 VRB05KT P6SM SCT015
     FM262000 26010KT P6SM SCT200=



000
FTUS46 KSGX 251700
TAFTRM
TAF
KTRM 251721Z 2518/2618 VRB06KT P6SM SCT100
     FM260100 33011KT P6SM SCT100
     FM261200 33007KT P6SM SCT200=



000
FTUS46 KSGX 251700
TAFSAN
TAF
KSAN 251721Z 2518/2624 30005KT P6SM SCT012 BKN100
     FM252000 29010KT P6SM SCT015 SCT070
     FM260200 VRB04KT P6SM SCT015
     FM260500 VRB03KT P6SM BKN015
     FM260900 VRB04KT P6SM OVC018
     FM261900 28010KT P6SM SCT025=



000
FTUS46 KSGX 251700
TAFCRQ
TAF
KCRQ 251721Z 2518/2618 26009KT P6SM SCT009 BKN100
     FM260200 VRB03KT P6SM SCT010 SCT070
     FM260600 VRB03KT P6SM OVC014=



000
FTUS46 KSGX 251700
TAFSNA
TAF
KSNA 251721Z 2518/2618 23010KT P6SM SCT100
     FM260300 VRB05KT P6SM SCT015
     FM260700 VRB05KT P6SM OVC015=



000
FTUS46 KSGX 251700
TAFPSP
TAF
KPSP 251721Z 2518/2618 VRB06KT P6SM SCT100
     FM252300 32012G20KT P6SM SCT100
     FM260700 VRB06KT P6SM SCT200=



000
FTUS46 KSGX 251200 AAA
TAFSAN
TAF AMD
KSAN 251237Z 2513/2618 VRB05KT P6SM FEW008 SCT080
     FM252000 29011KT P6SM SCT080
     FM260200 VRB04KT P6SM FEW015
     FM260500 VRB03KT P6SM BKN015
     FM260900 VRB04KT P6SM OVC020=



000
FTUS46 KSGX 251200 AAA
TAFCRQ
TAF AMD
KCRQ 251235Z 2513/2612 VRB04KT P6SM FEW002 BKN080
     FM251800 25009KT P6SM FEW006
     FM260200 VRB03KT P6SM BKN010
     FM260900 VRB03KT P6SM OVC015=



000
FTUS46 KSGX 251200 AAA
TAFSNA
TAF AMD
KSNA 251234Z 2513/2612 VRB04KT P6SM BKN080
     FM251800 23010KT P6SM SCT080
     FM260300 VRB05KT P6SM SCT015
     FM260500 VRB05KT P6SM OVC015=



000
FTUS46 KSGX 251100
TAFTRM
TAF
KTRM 251129Z 2512/2612 VRB06KT P6SM FEW090
     FM260300 33011KT P6SM FEW090=



000
FTUS46 KSGX 251100
TAFCRQ
TAF
KCRQ 251129Z 2512/2612 VRB04KT P6SM SCT002 BKN080
      TEMPO 2512/2514 3SM BR BKN003
     FM251800 25009KT P6SM FEW006
     FM260200 VRB03KT P6SM BKN010
     FM260900 VRB03KT P6SM OVC015=



000
FTUS46 KSGX 251100
TAFPSP
TAF
KPSP 251129Z 2512/2612 VRB06KT P6SM FEW090
     FM252300 33011KT P6SM FEW090
     FM260200 32012G20KT P6SM FEW090
     FM260700 VRB06KT P6SM FEW090=



000
FTUS46 KSGX 251100
TAFSAN
TAF
KSAN 251129Z 2512/2618 VRB03KT P6SM FEW008 SCT080
      TEMPO 2512/2515 3SM BR BKN009
     FM251700 23006KT P6SM SCT010 SCT080
     FM252000 29011KT P6SM SCT080
     FM260200 VRB04KT P6SM FEW015
     FM260500 VRB03KT P6SM BKN015
     FM260900 VRB04KT P6SM OVC020=



000
FTUS46 KSGX 251100
TAFSNA
TAF
KSNA 251129Z 2512/2612 VRB04KT P6SM SCT080
      TEMPO 2512/2515 1SM BR BKN003
     FM251800 23010KT P6SM FEW010
     FM260300 VRB05KT P6SM SCT015
     FM260500 VRB05KT P6SM OVC015=



000
FTUS46 KSGX 251100
TAFONT
TAF
KONT 251129Z 2512/2618 VRB04KT P6SM FEW090
     FM251900 25012KT P6SM SCT090
     FM260300 VRB04KT P6SM SKC
     FM260900 VRB04KT 4SM BR BKN009
     FM261600 VRB04KT 6SM BR SCT010=



000
FTUS46 KSGX 251100
TAFONT
TAF
KONT 251129Z 2512/2618 VRB04KT P6SM FEW090
     FM251900 25012KT P6SM SCT090
     FM260300 VRB04KT P6SM SKC
     FM260900 VRB04KT 4SM BR BKN009
     FM261600 VRB04KT 6SM BR SCT010=



000
FTUS46 KSGX 251100
TAFSNA
TAF
KSNA 251129Z 2512/2612 VRB04KT P6SM SCT080
      TEMPO 2512/2515 1SM BR BKN003
     FM251800 23010KT P6SM FEW010
     FM260300 VRB05KT P6SM SCT015
     FM260500 VRB05KT P6SM OVC015=



000
FTUS46 KSGX 251100
TAFTRM
TAF
KTRM 251129Z 2512/2612 VRB06KT P6SM FEW090
     FM260300 33011KT P6SM FEW090=



000
FTUS46 KSGX 251100
TAFPSP
TAF
KPSP 251129Z 2512/2612 VRB06KT P6SM FEW090
     FM252300 33011KT P6SM FEW090
     FM260200 32012G20KT P6SM FEW090
     FM260700 VRB06KT P6SM FEW090=



000
FTUS46 KSGX 251100
TAFCRQ
TAF
KCRQ 251129Z 2512/2612 VRB04KT P6SM SCT002 BKN080
      TEMPO 2512/2514 3SM BR BKN003
     FM251800 25009KT P6SM FEW006
     FM260200 VRB03KT P6SM BKN010
     FM260900 VRB03KT P6SM OVC015=



000
FTUS46 KSGX 251100
TAFSAN
TAF
KSAN 251129Z 2512/2618 VRB03KT P6SM FEW008 SCT080
      TEMPO 2512/2515 3SM BR BKN009
     FM251700 23006KT P6SM SCT010 SCT080
     FM252000 29011KT P6SM SCT080
     FM260200 VRB04KT P6SM FEW015
     FM260500 VRB03KT P6SM BKN015
     FM260900 VRB04KT P6SM OVC020=



000
FTUS46 KSGX 250900 AAA
TAFSNA
TAF AMD
KSNA 250931Z 2510/2606 VRB04KT P6SM FEW060
     FM251030 VRB04KT 3SM BR VCFG OVC004
      TEMPO 2511/2514 1SM BR VV002
     FM251500 VRB04KT 5SM HZ BKN007
     FM251800 23006KT P6SM FEW010=



000
FTUS46 KSGX 250900 AAA
TAFSAN
TAF AMD
KSAN 250906Z 2509/2612 VRB03KT P6SM FEW008
      TEMPO 2510/2514 3SM BR BKN005
     FM251400 18005KT 3SM BR BKN008
     FM251700 23006KT P6SM SCT008
     FM252000 29010KT P6SM FEW012
     FM260100 VRB04KT P6SM FEW010
     FM260500 VRB03KT P6SM BKN012=



000
FTUS46 KSGX 250800 AAA
TAFCRQ
TAF AMD
KCRQ 250817Z 2508/2606 VRB04KT P6SM OVC003
      TEMPO 2510/2514 1SM BR OVC002
     FM251800 25006KT P6SM FEW006
     FM260400 VRB03KT P6SM BKN010=



000
FTUS46 KSGX 250500
TAFCRQ
TAF
KCRQ 250520Z 2506/2606 VRB04KT P6SM FEW001 FEW060
     FM250900 VRB03KT 1SM BR BKN002
     FM251100 VRB03KT 1/4SM FG VV001
     FM251500 VRB04KT 2SM BR OVC003
     FM251800 25006KT P6SM FEW006
     FM260400 VRB03KT P6SM BKN010=



000
FTUS46 KSGX 250500
TAFSNA
TAF
KSNA 250520Z 2506/2606 VRB04KT P6SM FEW060
     FM250900 VRB04KT 3SM BR VCFG OVC004
      TEMPO 2510/2514 1SM BR VV002
     FM251500 VRB04KT 5SM HZ BKN007
     FM251800 23006KT P6SM FEW010=



000
FTUS46 KSGX 250500
TAFONT
TAF
KONT 250520Z 2506/2612 VRB04KT P6SM SKC
     FM251900 25011KT P6SM SKC
     FM260300 VRB04KT P6SM SKC=



000
FTUS46 KSGX 250500
TAFSAN
TAF
KSAN 250520Z 2506/2612 VRB03KT P6SM FEW008
     FM250900 17004KT 2SM BR VCFG BKN005
     FM251400 18005KT 3SM BR BKN007
     FM251700 23006KT P6SM SCT008
     FM252000 29010KT P6SM FEW012
     FM260100 VRB04KT P6SM FEW010
     FM260500 VRB03KT P6SM BKN012=



000
FTUS46 KSGX 250500
TAFTRM
TAF
KTRM 250520Z 2506/2606 VRB06KT P6SM FEW070
     FM260200 33008KT P6SM FEW070=



000
FTUS46 KSGX 250500
TAFPSP
TAF
KPSP 250520Z 2506/2606 VRB06KT P6SM FEW070
     FM260000 33011KT P6SM FEW070=



000
FTUS46 KSGX 250300 AAA
TAFSAN
TAF AMD
KSAN 250302Z 2503/2606 VRB03KT P6SM FEW010
     FM250700 17004KT 2SM BR VCFG BKN005
     FM251300 18005KT 3SM BR BKN007
     FM251700 23006KT P6SM SCT008
     FM252000 29010KT P6SM FEW012
     FM260100 VRB04KT P6SM FEW010=



000
FTUS46 KSGX 242300
TAFONT
TAF
KONT 242339Z 2500/2606 25011KT P6SM SKC
     FM250200 VRB04KT P6SM SKC
     FM251900 25011KT P6SM SKC
     FM260300 VRB04KT P6SM SKC=



000
FTUS46 KSGX 242300
TAFPSP
TAF
KPSP 242339Z 2500/2524 VRB06KT P6SM FEW070=



000
FTUS46 KSGX 242300
TAFCRQ
TAF
KCRQ 242339Z 2500/2524 VRB04KT P6SM FEW001 FEW060
     FM250600 VRB03KT 1SM BR BKN002
     FM250700 VRB03KT 1/4SM FG VV001
     FM251500 VRB04KT 2SM BR OVC003
     FM251800 25006KT P6SM FEW006=



000
FTUS46 KSGX 242300
TAFSAN
TAF
KSAN 242339Z 2500/2606 VRB04KT P6SM SKC
     FM250700 17004KT 2SM BR VCFG BKN005
     FM251300 18005KT 3SM BR BKN007
     FM251700 23006KT P6SM SCT008
     FM252000 29010KT P6SM FEW012
     FM260100 VRB04KT P6SM FEW010=



000
FTUS46 KSGX 242300
TAFSNA
TAF
KSNA 242339Z 2500/2524 VRB04KT P6SM FEW060
     FM250900 VRB04KT 3SM BR VCFG OVC004
      TEMPO 2510/2514 1SM BR VV002
     FM251500 VRB04KT 5SM HZ BKN007
     FM251800 23006KT P6SM FEW010=



000
FTUS46 KSGX 242300
TAFTRM
TAF
KTRM 242339Z 2500/2524 VRB06KT P6SM FEW070=



000
FTUS46 KSGX 242000 AAA
TAFSAN
TAF AMD
KSAN 242054Z 2421/2524 28007KT P6SM SKC
     FM250130 22004KT P6SM FEW004
     FM250700 17004KT 2SM BR VCFG OVC005
     FM251300 18005KT 3SM BR OVC007
     FM251700 23006KT P6SM SCT008
     FM252000 29010KT P6SM SCT012=



000
FTUS46 KSGX 241700
TAFONT
TAF
KONT 241736Z 2418/2524 VRB04KT P6SM SKC
     FM242100 25009KT P6SM SKC
     FM250200 VRB04KT P6SM SKC
     FM251300 VRB03KT 5SM HZ VCFG FEW001
     FM251900 25010KT P6SM SKC=



000
FTUS46 KSGX 241700
TAFTRM
TAF
KTRM 241736Z 2418/2518 VRB06KT P6SM SCT070=



000
FTUS46 KSGX 241700
TAFSAN
TAF
KSAN 241736Z 2418/2524 VRB04KT P6SM SKC
     FM242000 27008KT P6SM FEW060
     FM250130 VRB04KT P6SM FEW004 SCT060
     FM250600 17004KT 2SM BR VCFG OVC005
     FM251300 18005KT 3SM BR OVC007
     FM251700 23006KT P6SM SCT008
     FM252000 29010KT P6SM SCT012=



000
FTUS46 KSGX 241700
TAFCRQ
TAF
KCRQ 241736Z 2418/2518 VRB04KT P6SM SKC
     FM242000 27007KT P6SM FEW060
     FM250000 VRB04KT P6SM FEW001 SCT060
     FM250600 VRB03KT 1SM BR BKN001
     FM250800 VRB03KT 1/4SM FG VV001
     FM251400 VRB04KT 2SM BR OVC003=



000
FTUS46 KSGX 241700
TAFPSP
TAF
KPSP 241736Z 2418/2518 VRB06KT P6SM FEW070=



000
FTUS46 KSGX 241700
TAFSNA
TAF
KSNA 241736Z 2418/2518 VRB04KT P6SM SKC
     FM242100 22007KT P6SM SKC
     FM250200 VRB04KT P6SM FEW060
     FM250900 VRB04KT 3SM BR VCFG OVC004
      TEMPO 2510/2514 1SM BR VV002
     FM251500 VRB04KT 5SM HZ OVC007=



000
FTUS46 KSGX 241400 AAA
TAFSAN
TAF AMD
KSAN 241453Z 2415/2518 VRB04KT P6SM SKC
     FM242000 27008KT P6SM FEW060
     FM250130 VRB04KT P6SM FEW004 SCT060
     FM250600 17004KT 2SM BR VCFG OVC005
     FM251300 18005KT 3SM BR OVC007
     FM251700 23006KT P6SM SCT008=



000
FTUS46 KSGX 241300 AAA
TAFSNA
TAF AMD
KSNA 241324Z 2413/2512 VRB04KT P6SM SKC
     FM242100 22007KT P6SM SKC
     FM250000 VRB04KT P6SM SKC
     FM251000 VRB04KT P6SM VCFG FEW006=



000
FTUS46 KSGX 241100
TAFONT
TAF
KONT 241135Z 2412/2518 VRB04KT P6SM SKC
     FM242100 25010KT P6SM SKC
     FM250230 VRB04KT P6SM SKC=



000
FTUS46 KSGX 241100
TAFTRM
TAF
KTRM 241135Z 2412/2512 VRB06KT P6SM SKC=



000
FTUS46 KSGX 241100
TAFSNA
TAF
KSNA 241135Z 2412/2512 VRB04KT P6SM VCFG SKC
     FM242100 22007KT P6SM SKC
     FM250000 VRB04KT P6SM SKC
     FM251000 VRB04KT P6SM VCFG FEW006=



000
FTUS46 KSGX 241100
TAFCRQ
TAF
KCRQ 241135Z 2412/2512 VRB04KT P6SM SKC
     FM242000 27007KT P6SM SKC
     FM250000 VRB04KT P6SM SKC
     FM251000 VRB04KT P6SM VCFG SCT004=



000
FTUS46 KSGX 241100
TAFPSP
TAF
KPSP 241135Z 2412/2512 VRB06KT P6SM SKC=



000
FTUS46 KSGX 241100
TAFSAN
TAF
KSAN 241135Z 2412/2518 VRB03KT P6SM VCFG SKC
     FM242000 27008KT P6SM SKC
     FM250130 VRB04KT P6SM SKC
     FM250930 VRB04KT 3SM BR FEW006
     FM251530 VRB04KT P6SM FEW008=



000
FTUS46 KSGX 240800 AAA
TAFSAN
TAF AMD
KSAN 240845Z 2409/2512 VRB04KT P6SM SKC
      TEMPO 2411/2414 3SM BR FEW003
     FM242000 27008KT P6SM SKC
     FM250100 VRB04KT P6SM SKC=



000
FTUS46 KSGX 240500
TAFTRM
TAF
KTRM 240520Z 2406/2506 VRB05KT P6SM SKC
     FM242100 14008KT P6SM SKC
     FM250000 VRB05KT P6SM SKC=



000
FTUS46 KSGX 240500
TAFSAN
TAF
KSAN 240520Z 2406/2512 VRB04KT P6SM SKC
      TEMPO 2411/2414 3SM BR FEW003
     FM242000 27008KT P6SM SKC
     FM250100 VRB04KT P6SM SKC=



000
FTUS46 KSGX 240500
TAFPSP
TAF
KPSP 240520Z 2406/2506 VRB05KT P6SM SKC=



000
FTUS46 KSGX 240500
TAFONT
TAF
KONT 240520Z 2406/2512 VRB04KT P6SM SKC
     FM242100 25009KT P6SM SKC
     FM250300 VRB04KT P6SM SKC=



000
FTUS46 KSGX 240500
TAFSNA
TAF
KSNA 240520Z 2406/2506 VRB04KT P6SM SKC
     FM242100 22007KT P6SM SKC
     FM250000 VRB04KT P6SM SKC=



000
FTUS46 KSGX 240500
TAFCRQ
TAF
KCRQ 240520Z 2406/2506 VRB04KT P6SM SKC
     FM242000 27007KT P6SM SKC
     FM250000 VRB04KT P6SM SKC=



000
FTUS46 KSGX 240400 AAA
TAFSAN
TAF AMD
KSAN 240406Z 2404/2506 VRB04KT P6SM SKC
      TEMPO 2410/2414 2SM BR SCT003
     FM242000 27008KT P6SM SKC
     FM250100 VRB04KT P6SM SKC=



000
FTUS46 KSGX 240400 AAA
TAFSAN
TAF AMD
KSAN 240406Z 2404/2506 VRB04KT P6SM SKC
      TEMPO 2410/2414 2SM BR SCT003
     FM242000 27008KT P6SM SKC
     FM250100 VRB04KT P6SM SKC=



000
FTUS46 KSGX 232300
TAFSNA
TAF
KSNA 232324Z 2400/2424 VRB04KT P6SM SKC
     FM242100 22007KT P6SM SKC=



000
FTUS46 KSGX 232300
TAFCRQ
TAF
KCRQ 232324Z 2400/2424 VRB04KT P6SM SKC
     FM240800 VRB04KT 3SM BR SCT001
      TEMPO 2409/2413 1/2SM FG BKN001
     FM241300 VRB04KT P6SM SKC
     FM242000 27007KT P6SM SKC=



000
FTUS46 KSGX 232300
TAFTRM
TAF
KTRM 232324Z 2400/2424 VRB05KT P6SM SKC
     FM242100 14008KT P6SM SKC=



000
FTUS46 KSGX 232300
TAFSAN
TAF
KSAN 232324Z 2400/2506 VRB04KT P6SM SKC
      TEMPO 2410/2414 2SM BR SCT003
     FM242000 27008KT P6SM SKC
     FM250100 VRB04KT P6SM SKC=



000
FTUS46 KSGX 232300
TAFONT
TAF
KONT 232324Z 2400/2506 25009KT P6SM SKC
     FM240200 VRB04KT P6SM SKC
     FM242100 25009KT P6SM SKC
     FM250300 VRB04KT P6SM SKC=



000
FTUS46 KSGX 232300
TAFPSP
TAF
KPSP 232324Z 2400/2424 VRB05KT P6SM SKC=



000
FTUS46 KSGX 232000 AAA
TAFSAN
TAF AMD
KSAN 232029Z 2320/2424 31007KT P6SM FEW200
     FM240200 VRB03KT P6SM SKC
      TEMPO 2410/2414 5SM BR FEW002
     FM241900 27007KT P6SM SKC=



000
FTUS46 KSGX 231700
TAFTRM
TAF
KTRM 231729Z 2318/2418 VRB06KT P6SM SKC=



000
FTUS46 KSGX 231700
TAFONT
TAF
KONT 231729Z 2318/2424 VRB03KT P6SM SCT250
     FM232200 25008KT P6SM FEW250
     FM240300 VRB03KT P6SM SKC
     FM242100 25009KT P6SM SKC=



000
FTUS46 KSGX 231700
TAFPSP
TAF
KPSP 231729Z 2318/2418 VRB06KT P6SM SKC=



000
FTUS46 KSGX 231700
TAFCRQ
TAF
KCRQ 231729Z 2318/2418 VRB03KT P6SM FEW200
     FM232000 26007KT P6SM FEW200
     FM240200 VRB03KT P6SM SKC
      TEMPO 2407/2411 3SM BR SCT001=



000
FTUS46 KSGX 231700
TAFSAN
TAF
KSAN 231729Z 2318/2424 VRB04KT P6SM FEW200
     FM232000 29008KT P6SM FEW200
     FM240200 VRB03KT P6SM SKC
      TEMPO 2410/2414 5SM BR FEW002
     FM241900 27007KT P6SM SKC=



000
FTUS46 KSGX 231700
TAFSNA
TAF
KSNA 231729Z 2318/2418 VRB03KT P6SM SCT250
     FM232100 22007KT P6SM SCT250
     FM240200 VRB03KT P6SM SKC=



000
FTUS46 KSGX 231400 AAA
TAFSAN
TAF AMD
KSAN 231448Z 2315/2418 VRB03KT P6SM SKC
     FM232000 29008KT P6SM SKC
     FM240200 VRB03KT 6SM HZ SKC=



000
FTUS46 KSGX 231400 AAA
TAFSAN
TAF AMD
KSAN 231448Z 2315/2418 VRB03KT P6SM SKC
     FM232000 29008KT P6SM SKC
     FM240200 VRB03KT 6SM HZ SKC=



000
FTUS46 KSGX 231100
TAFSAN
TAF
KSAN 231120Z 2312/2418 VRB03KT 6SM HZ SKC
      TEMPO 2312/2314 4SM BR SCT005
     FM232000 30009KT P6SM SKC
     FM240200 VRB03KT 6SM HZ SKC
      TEMPO 2409/2413 4SM BR SCT003=



000
FTUS46 KSGX 231100
TAFSNA
TAF
KSNA 231120Z 2312/2412 VRB02KT P6SM SKC
     FM232100 21008KT P6SM SKC
     FM240200 VRB02KT P6SM SKC=



000
FTUS46 KSGX 231100
TAFPSP
TAF
KPSP 231120Z 2312/2412 VRB06KT P6SM SKC=



000
FTUS46 KSGX 231100
TAFTRM
TAF
KTRM 231120Z 2312/2412 VRB05KT P6SM SKC=



000
FTUS46 KSGX 231100
TAFONT
TAF
KONT 231120Z 2312/2418 VRB03KT P6SM SKC
     FM232200 25010KT P6SM SKC
     FM240400 VRB03KT P6SM SKC=



000
FTUS46 KSGX 231100
TAFCRQ
TAF
KCRQ 231120Z 2312/2412 VRB02KT P6SM SKC
      TEMPO 2312/2314 4SM BR SCT003
     FM232000 27008KT P6SM SKC
     FM240200 VRB02KT P6SM SKC
      TEMPO 2408/2412 3SM BR SCT001=



000
FTUS46 KSGX 231000 AAD
TAFCRQ
TAF AMD
KCRQ 231013Z 2310/2406 VRB02KT P6SM SKC
      TEMPO 2311/2314 3SM BR SCT003
     FM231500 VRB05KT P6SM SKC=



000
FTUS46 KSGX 231000 AAB
TAFSAN
TAF AMD
KSAN 231012Z 2310/2412 VRB02KT P6SM SKC
      TEMPO 2311/2314 4SM BR SCT005
     FM231500 VRB04KT P6SM SKC
     FM232000 30008KT P6SM SKC
     FM240200 VRB04KT P6SM SKC=



000
FTUS46 KSGX 230900 AAA
TAFSAN
TAF AMD
KSAN 230913Z 2309/2412 VRB03KT 4SM BR SCT005
      TEMPO 2310/2313 2SM BR BKN005
     FM231500 VRB04KT P6SM SKC
     FM232000 30008KT P6SM SKC
     FM240200 VRB04KT P6SM SKC=



000
FTUS46 KSGX 230900 AAC
TAFCRQ
TAF AMD
KCRQ 230911Z 2309/2406 VRB02KT 4SM BR SCT003
      TEMPO 2310/2313 1SM BR BKN003
     FM231500 VRB05KT P6SM SKC=



000
FTUS46 KSGX 230800 AAB
TAFCRQ
TAF AMD
KCRQ 230806Z 2308/2406 VRB02KT 1/4SM FG VV001
      TEMPO 2309/2313 1SM BR BKN003
     FM231300 VRB03KT 3SM BR SCT003
     FM231500 VRB05KT P6SM SKC=



000
FTUS46 KSGX 230800 AAB
TAFCRQ
TAF AMD
KCRQ 230806Z 2308/2406 VRB02KT 1/4SM FG VV001
      TEMPO 2309/2313 1SM BR BKN003
     FM231300 VRB03KT 3SM BR SCT003
     FM231500 VRB05KT P6SM SKC=



    US Dept of Commerce
    National Oceanic and Atmospheric Administration
    National Weather Service
    1325 East West Highway
    Silver Spring, MD 20910
    Page Author: NWS Internet Services Team
Disclaimer
Information Quality
Credits
Glossary
Privacy Policy
Freedom of Information Act (FOIA)
About Us
Career Opportunities